sensor_id;sensor_type;location;lat;lon;timestamp;temperature;humidity
11399;DHT22;5755;48.116;11.608;2022-12-05T00:02:02;2.80;99.80
11399;DHT22;5755;48.116;11.608;2022-12-05T00:04:29;2.70;99.80
11399;DHT22;5755;48.116;11.608;2022-12-05T00:07:01;2.80;99.90
11399;DHT22;5755;48.116;11.608;2022-12-05T00:09:28;2.90;99.90
11399;DHT22;5755;48.116;11.608;2022-12-05T00:11:55;3.00;99.80
11399;DHT22;5755;48.116;11.608;2022-12-05T00:14:22;3.00;99.80
11399;DHT22;5755;48.116;11.608;2022-12-05T00:16:52;3.00;99.80
11399;DHT22;5755;48.116;11.608;2022-12-05T00:19:18;2.90;99.80
11399;DHT22;5755;48.116;11.608;2022-12-05T00:21:45;2.90;99.80
11399;DHT22;5755;48.116;11.608;2022-12-05T00:24:14;3.00;99.80
11399;DHT22;5755;48.116;11.608;2022-12-05T00:26:43;2.90;99.80
11399;DHT22;5755;48.116;11.608;2022-12-05T00:29:11;3.00;99.80
11399;DHT22;5755;48.116;11.608;2022-12-05T00:31:38;3.00;99.40
11399;DHT22;5755;48.116;11.608;2022-12-05T00:34:06;3.00;99.90
11399;DHT22;5755;48.116;11.608;2022-12-05T00:36:34;3.10;99.80
11399;DHT22;5755;48.116;11.608;2022-12-05T00:39:03;3.10;99.80
11399;DHT22;5755;48.116;11.608;2022-12-05T00:41:31;3.00;99.80
11399;DHT22;5755;48.116;11.608;2022-12-05T00:44:00;2.90;99.80
11399;DHT22;5755;48.116;11.608;2022-12-05T00:46:29;2.70;99.80
11399;DHT22;5755;48.116;11.608;2022-12-05T00:48:58;2.70;99.90
11399;DHT22;5755;48.116;11.608;2022-12-05T00:51:31;2.70;99.90
11399;DHT22;5755;48.116;11.608;2022-12-05T00:54:00;2.70;99.90
11399;DHT22;5755;48.116;11.608;2022-12-05T00:56:29;2.60;99.90
11399;DHT22;5755;48.116;11.608;2022-12-05T00:58:57;2.60;99.90
11399;DHT22;5755;48.116;11.608;2022-12-05T01:01:27;2.50;99.90
11399;DHT22;5755;48.116;11.608;2022-12-05T01:03:56;2.50;99.90
11399;DHT22;5755;48.116;11.608;2022-12-05T01:06:24;2.60;99.90
11399;DHT22;5755;48.116;11.608;2022-12-05T01:08:54;2.60;99.90
11399;DHT22;5755;48.116;11.608;2022-12-05T01:11:22;2.70;99.90
11399;DHT22;5755;48.116;11.608;2022-12-05T01:13:50;2.60;99.90
11399;DHT22;5755;48.116;11.608;2022-12-05T01:16:19;2.70;99.90
11399;DHT22;5755;48.116;11.608;2022-12-05T01:18:47;2.80;99.90
11399;DHT22;5755;48.116;11.608;2022-12-05T01:21:14;2.90;99.90
11399;DHT22;5755;48.116;11.608;2022-12-05T01:23:41;2.90;99.80
11399;DHT22;5755;48.116;11.608;2022-12-05T01:26:11;2.80;99.80
11399;DHT22;5755;48.116;11.608;2022-12-05T01:28:39;2.70;99.90
11399;DHT22;5755;48.116;11.608;2022-12-05T01:31:08;2.70;99.90
11399;DHT22;5755;48.116;11.608;2022-12-05T01:33:35;2.80;99.90
11399;DHT22;5755;48.116;11.608;2022-12-05T01:36:03;2.80;99.90
11399;DHT22;5755;48.116;11.608;2022-12-05T01:38:32;2.90;99.90
11399;DHT22;5755;48.116;11.608;2022-12-05T01:41:03;2.80;99.90
11399;DHT22;5755;48.116;11.608;2022-12-05T01:43:33;2.80;99.90
11399;DHT22;5755;48.116;11.608;2022-12-05T01:46:18;2.80;99.90
11399;DHT22;5755;48.116;11.608;2022-12-05T01:48:45;2.90;99.90
11399;DHT22;5755;48.116;11.608;2022-12-05T01:51:13;3.00;99.90
11399;DHT22;5755;48.116;11.608;2022-12-05T01:53:40;3.00;99.80
11399;DHT22;5755;48.116;11.608;2022-12-05T01:56:07;2.90;99.90
11399;DHT22;5755;48.116;11.608;2022-12-05T01:58:37;2.80;99.90
11399;DHT22;5755;48.116;11.608;2022-12-05T02:01:04;2.90;99.90
11399;DHT22;5755;48.116;11.608;2022-12-05T02:03:31;2.90;99.90
11399;DHT22;5755;48.116;11.608;2022-12-05T02:05:58;2.90;99.90
11399;DHT22;5755;48.116;11.608;2022-12-05T02:08:27;2.90;99.90
11399;DHT22;5755;48.116;11.608;2022-12-05T02:10:56;2.80;99.90
11399;DHT22;5755;48.116;11.608;2022-12-05T02:13:33;2.90;99.90
11399;DHT22;5755;48.116;11.608;2022-12-05T02:16:10;2.90;99.90
11399;DHT22;5755;48.116;11.608;2022-12-05T02:18:52;3.00;99.90
11399;DHT22;5755;48.116;11.608;2022-12-05T02:21:43;3.00;99.90
11399;DHT22;5755;48.116;11.608;2022-12-05T02:27:31;2.80;99.90
11399;DHT22;5755;48.116;11.608;2022-12-05T02:30:11;2.80;99.90
11399;DHT22;5755;48.116;11.608;2022-12-05T02:32:49;2.90;99.90
11399;DHT22;5755;48.116;11.608;2022-12-05T02:35:36;2.90;99.90
11399;DHT22;5755;48.116;11.608;2022-12-05T02:38:14;2.90;99.90
11399;DHT22;5755;48.116;11.608;2022-12-05T02:40:51;2.80;99.90
11399;DHT22;5755;48.116;11.608;2022-12-05T02:43:25;2.80;99.90
11399;DHT22;5755;48.116;11.608;2022-12-05T02:45:59;2.80;99.90
11399;DHT22;5755;48.116;11.608;2022-12-05T02:48:28;2.80;99.90
11399;DHT22;5755;48.116;11.608;2022-12-05T02:50:57;2.70;99.90
11399;DHT22;5755;48.116;11.608;2022-12-05T02:53:26;2.80;99.90
11399;DHT22;5755;48.116;11.608;2022-12-05T02:55:54;2.80;99.90
11399;DHT22;5755;48.116;11.608;2022-12-05T02:58:23;2.80;99.90
11399;DHT22;5755;48.116;11.608;2022-12-05T03:00:57;2.70;99.90
11399;DHT22;5755;48.116;11.608;2022-12-05T03:03:24;2.80;99.90
11399;DHT22;5755;48.116;11.608;2022-12-05T03:05:58;2.80;99.90
11399;DHT22;5755;48.116;11.608;2022-12-05T03:08:30;2.80;99.90
11399;DHT22;5755;48.116;11.608;2022-12-05T03:11:00;2.70;99.90
11399;DHT22;5755;48.116;11.608;2022-12-05T03:13:32;2.70;99.90
11399;DHT22;5755;48.116;11.608;2022-12-05T03:16:06;2.70;99.90
11399;DHT22;5755;48.116;11.608;2022-12-05T03:18:37;2.60;99.90
11399;DHT22;5755;48.116;11.608;2022-12-05T03:21:14;2.50;99.90
11399;DHT22;5755;48.116;11.608;2022-12-05T03:23:47;2.60;99.90
11399;DHT22;5755;48.116;11.608;2022-12-05T03:26:20;2.60;99.90
11399;DHT22;5755;48.116;11.608;2022-12-05T03:28:56;2.60;99.90
11399;DHT22;5755;48.116;11.608;2022-12-05T03:31:43;2.60;99.90
11399;DHT22;5755;48.116;11.608;2022-12-05T03:34:15;2.50;99.90
11399;DHT22;5755;48.116;11.608;2022-12-05T03:36:47;2.40;99.90
11399;DHT22;5755;48.116;11.608;2022-12-05T03:39:20;2.40;99.90
11399;DHT22;5755;48.116;11.608;2022-12-05T03:41:53;2.30;99.90
11399;DHT22;5755;48.116;11.608;2022-12-05T03:44:29;2.50;99.90
11399;DHT22;5755;48.116;11.608;2022-12-05T03:47:02;2.60;99.90
11399;DHT22;5755;48.116;11.608;2022-12-05T03:49:33;2.70;99.90
11399;DHT22;5755;48.116;11.608;2022-12-05T03:52:05;2.60;99.90
11399;DHT22;5755;48.116;11.608;2022-12-05T03:54:36;2.60;99.90
11399;DHT22;5755;48.116;11.608;2022-12-05T03:57:07;2.50;99.90
11399;DHT22;5755;48.116;11.608;2022-12-05T03:59:41;2.50;99.90
11399;DHT22;5755;48.116;11.608;2022-12-05T04:02:15;2.60;99.90
11399;DHT22;5755;48.116;11.608;2022-12-05T04:04:47;2.70;99.90
11399;DHT22;5755;48.116;11.608;2022-12-05T04:07:17;2.70;99.90
11399;DHT22;5755;48.116;11.608;2022-12-05T04:09:50;2.70;99.90
11399;DHT22;5755;48.116;11.608;2022-12-05T04:12:21;2.60;99.90
11399;DHT22;5755;48.116;11.608;2022-12-05T04:14:51;2.60;99.90
11399;DHT22;5755;48.116;11.608;2022-12-05T04:17:25;2.60;99.90
11399;DHT22;5755;48.116;11.608;2022-12-05T04:19:58;2.70;99.90
11399;DHT22;5755;48.116;11.608;2022-12-05T04:22:44;2.70;99.90
11399;DHT22;5755;48.116;11.608;2022-12-05T04:25:12;2.80;99.90
11399;DHT22;5755;48.116;11.608;2022-12-05T04:28:09;2.70;99.90
11399;DHT22;5755;48.116;11.608;2022-12-05T04:30:44;2.90;99.90
11399;DHT22;5755;48.116;11.608;2022-12-05T04:33:16;2.80;99.90
11399;DHT22;5755;48.116;11.608;2022-12-05T04:35:52;2.90;99.90
11399;DHT22;5755;48.116;11.608;2022-12-05T04:38:23;2.90;99.90
11399;DHT22;5755;48.116;11.608;2022-12-05T04:40:54;2.80;99.90
11399;DHT22;5755;48.116;11.608;2022-12-05T04:43:23;2.90;99.90
11399;DHT22;5755;48.116;11.608;2022-12-05T04:45:51;2.90;99.90
11399;DHT22;5755;48.116;11.608;2022-12-05T04:48:22;2.90;99.90
11399;DHT22;5755;48.116;11.608;2022-12-05T04:50:53;2.90;99.90
11399;DHT22;5755;48.116;11.608;2022-12-05T04:53:25;2.90;99.90
11399;DHT22;5755;48.116;11.608;2022-12-05T04:55:55;3.00;99.90
11399;DHT22;5755;48.116;11.608;2022-12-05T04:58:25;2.90;99.90
11399;DHT22;5755;48.116;11.608;2022-12-05T05:00:58;2.90;99.90
11399;DHT22;5755;48.116;11.608;2022-12-05T05:03:33;3.00;99.90
11399;DHT22;5755;48.116;11.608;2022-12-05T05:06:02;3.00;99.90
11399;DHT22;5755;48.116;11.608;2022-12-05T05:08:30;3.00;99.90
11399;DHT22;5755;48.116;11.608;2022-12-05T05:11:08;3.00;99.90
11399;DHT22;5755;48.116;11.608;2022-12-05T05:13:36;3.00;99.90
11399;DHT22;5755;48.116;11.608;2022-12-05T05:16:04;3.10;99.90
11399;DHT22;5755;48.116;11.608;2022-12-05T05:18:34;3.20;99.90
11399;DHT22;5755;48.116;11.608;2022-12-05T05:21:01;3.20;99.90
11399;DHT22;5755;48.116;11.608;2022-12-05T05:23:31;3.10;99.90
11399;DHT22;5755;48.116;11.608;2022-12-05T05:25:58;3.20;99.90
11399;DHT22;5755;48.116;11.608;2022-12-05T05:28:27;3.20;99.90
11399;DHT22;5755;48.116;11.608;2022-12-05T05:30:54;3.40;99.90
11399;DHT22;5755;48.116;11.608;2022-12-05T05:33:20;3.50;99.70
11399;DHT22;5755;48.116;11.608;2022-12-05T05:35:49;3.50;99.40
11399;DHT22;5755;48.116;11.608;2022-12-05T05:38:16;3.50;99.90
11399;DHT22;5755;48.116;11.608;2022-12-05T05:40:43;3.40;99.90
11399;DHT22;5755;48.116;11.608;2022-12-05T05:43:13;3.50;99.90
11399;DHT22;5755;48.116;11.608;2022-12-05T05:45:40;3.40;99.90
11399;DHT22;5755;48.116;11.608;2022-12-05T05:48:07;3.30;99.90
11399;DHT22;5755;48.116;11.608;2022-12-05T05:50:34;3.30;99.90
11399;DHT22;5755;48.116;11.608;2022-12-05T05:53:03;3.30;99.90
11399;DHT22;5755;48.116;11.608;2022-12-05T05:55:30;3.30;99.90
11399;DHT22;5755;48.116;11.608;2022-12-05T05:57:57;3.30;99.90
11399;DHT22;5755;48.116;11.608;2022-12-05T06:00:24;3.30;99.90
11399;DHT22;5755;48.116;11.608;2022-12-05T06:02:52;3.30;99.90
11399;DHT22;5755;48.116;11.608;2022-12-05T06:05:19;3.40;99.90
11399;DHT22;5755;48.116;11.608;2022-12-05T06:07:45;3.50;99.90
11399;DHT22;5755;48.116;11.608;2022-12-05T06:10:14;3.60;99.90
11399;DHT22;5755;48.116;11.608;2022-12-05T06:12:43;3.60;99.90
11399;DHT22;5755;48.116;11.608;2022-12-05T06:15:10;3.60;99.90
11399;DHT22;5755;48.116;11.608;2022-12-05T06:17:37;3.50;99.90
11399;DHT22;5755;48.116;11.608;2022-12-05T06:20:06;3.50;99.90
11399;DHT22;5755;48.116;11.608;2022-12-05T06:22:33;3.40;99.90
11399;DHT22;5755;48.116;11.608;2022-12-05T06:25:00;3.40;99.90
11399;DHT22;5755;48.116;11.608;2022-12-05T06:27:29;3.40;99.90
11399;DHT22;5755;48.116;11.608;2022-12-05T06:29:56;3.50;99.90
11399;DHT22;5755;48.116;11.608;2022-12-05T06:32:23;3.50;99.90
11399;DHT22;5755;48.116;11.608;2022-12-05T06:34:50;3.40;99.90
11399;DHT22;5755;48.116;11.608;2022-12-05T06:37:17;3.40;99.90
11399;DHT22;5755;48.116;11.608;2022-12-05T06:39:44;3.30;99.90
11399;DHT22;5755;48.116;11.608;2022-12-05T06:42:11;3.30;99.90
11399;DHT22;5755;48.116;11.608;2022-12-05T06:44:39;3.40;99.90
11399;DHT22;5755;48.116;11.608;2022-12-05T06:47:07;3.40;99.90
11399;DHT22;5755;48.116;11.608;2022-12-05T06:49:34;3.50;99.90
11399;DHT22;5755;48.116;11.608;2022-12-05T06:52:02;3.60;99.90
11399;DHT22;5755;48.116;11.608;2022-12-05T06:54:29;3.60;99.90
11399;DHT22;5755;48.116;11.608;2022-12-05T06:56:55;3.60;99.90
11399;DHT22;5755;48.116;11.608;2022-12-05T06:59:23;3.50;99.90
11399;DHT22;5755;48.116;11.608;2022-12-05T07:01:51;3.50;99.90
11399;DHT22;5755;48.116;11.608;2022-12-05T07:04:20;3.50;99.90
11399;DHT22;5755;48.116;11.608;2022-12-05T07:06:55;3.60;99.90
11399;DHT22;5755;48.116;11.608;2022-12-05T07:09:24;3.60;99.90
11399;DHT22;5755;48.116;11.608;2022-12-05T07:12:10;3.60;99.90
11399;DHT22;5755;48.116;11.608;2022-12-05T07:14:38;3.70;99.90
11399;DHT22;5755;48.116;11.608;2022-12-05T07:17:06;3.70;99.90
11399;DHT22;5755;48.116;11.608;2022-12-05T07:19:51;3.80;99.90
11399;DHT22;5755;48.116;11.608;2022-12-05T07:22:28;3.80;99.90
11399;DHT22;5755;48.116;11.608;2022-12-05T07:24:55;3.90;99.90
11399;DHT22;5755;48.116;11.608;2022-12-05T07:27:22;3.90;99.90
11399;DHT22;5755;48.116;11.608;2022-12-05T07:29:48;3.90;99.90
11399;DHT22;5755;48.116;11.608;2022-12-05T07:32:18;3.90;99.90
11399;DHT22;5755;48.116;11.608;2022-12-05T07:34:45;4.00;99.90
11399;DHT22;5755;48.116;11.608;2022-12-05T07:37:12;4.00;99.90
11399;DHT22;5755;48.116;11.608;2022-12-05T07:39:39;4.10;99.90
11399;DHT22;5755;48.116;11.608;2022-12-05T07:42:06;4.30;99.30
11399;DHT22;5755;48.116;11.608;2022-12-05T07:44:33;4.50;99.00
11399;DHT22;5755;48.116;11.608;2022-12-05T07:47:00;4.60;98.50
11399;DHT22;5755;48.116;11.608;2022-12-05T07:49:28;4.70;98.10
11399;DHT22;5755;48.116;11.608;2022-12-05T07:51:56;4.80;97.70
11399;DHT22;5755;48.116;11.608;2022-12-05T07:54:23;4.80;97.50
11399;DHT22;5755;48.116;11.608;2022-12-05T07:56:50;4.70;97.60
11399;DHT22;5755;48.116;11.608;2022-12-05T07:59:17;4.70;98.10
11399;DHT22;5755;48.116;11.608;2022-12-05T08:01:43;4.50;97.90
11399;DHT22;5755;48.116;11.608;2022-12-05T08:04:10;4.50;98.20
11399;DHT22;5755;48.116;11.608;2022-12-05T08:06:39;4.40;98.50
11399;DHT22;5755;48.116;11.608;2022-12-05T08:09:06;4.40;98.60
11399;DHT22;5755;48.116;11.608;2022-12-05T08:11:33;4.40;98.80
11399;DHT22;5755;48.116;11.608;2022-12-05T08:14:01;4.40;98.90
11399;DHT22;5755;48.116;11.608;2022-12-05T08:16:29;4.60;98.10
11399;DHT22;5755;48.116;11.608;2022-12-05T08:18:59;4.70;97.60
11399;DHT22;5755;48.116;11.608;2022-12-05T08:21:27;4.70;97.60
11399;DHT22;5755;48.116;11.608;2022-12-05T08:23:55;4.70;97.60
11399;DHT22;5755;48.116;11.608;2022-12-05T08:26:24;4.70;97.60
11399;DHT22;5755;48.116;11.608;2022-12-05T08:28:53;4.80;97.70
11399;DHT22;5755;48.116;11.608;2022-12-05T08:31:22;4.70;97.50
11399;DHT22;5755;48.116;11.608;2022-12-05T08:33:57;4.70;98.20
11399;DHT22;5755;48.116;11.608;2022-12-05T08:36:25;4.80;97.70
11399;DHT22;5755;48.116;11.608;2022-12-05T08:38:57;4.70;97.60
11399;DHT22;5755;48.116;11.608;2022-12-05T08:41:25;4.70;98.10
11399;DHT22;5755;48.116;11.608;2022-12-05T08:43:54;4.60;98.30
11399;DHT22;5755;48.116;11.608;2022-12-05T08:46:21;4.60;98.50
11399;DHT22;5755;48.116;11.608;2022-12-05T08:48:48;4.70;98.10
11399;DHT22;5755;48.116;11.608;2022-12-05T08:51:15;4.60;98.20
11399;DHT22;5755;48.116;11.608;2022-12-05T08:53:42;4.70;98.10
11399;DHT22;5755;48.116;11.608;2022-12-05T08:56:11;4.70;97.90
11399;DHT22;5755;48.116;11.608;2022-12-05T08:58:51;4.70;98.00
11399;DHT22;5755;48.116;11.608;2022-12-05T09:01:20;4.60;98.10
11399;DHT22;5755;48.116;11.608;2022-12-05T09:03:47;4.50;98.40
11399;DHT22;5755;48.116;11.608;2022-12-05T09:06:19;4.40;98.70
11399;DHT22;5755;48.116;11.608;2022-12-05T09:08:47;4.50;99.00
11399;DHT22;5755;48.116;11.608;2022-12-05T09:11:18;4.50;99.00
11399;DHT22;5755;48.116;11.608;2022-12-05T09:13:45;4.60;99.00
11399;DHT22;5755;48.116;11.608;2022-12-05T09:16:14;4.50;98.90
11399;DHT22;5755;48.116;11.608;2022-12-05T09:18:42;4.50;99.20
11399;DHT22;5755;48.116;11.608;2022-12-05T09:21:11;4.50;99.40
11399;DHT22;5755;48.116;11.608;2022-12-05T09:23:39;4.40;99.20
11399;DHT22;5755;48.116;11.608;2022-12-05T09:26:09;4.50;99.90
11399;DHT22;5755;48.116;11.608;2022-12-05T09:28:38;4.60;99.00
11399;DHT22;5755;48.116;11.608;2022-12-05T09:31:07;4.60;99.20
11399;DHT22;5755;48.116;11.608;2022-12-05T09:33:36;4.50;99.30
11399;DHT22;5755;48.116;11.608;2022-12-05T09:36:03;4.50;99.50
11399;DHT22;5755;48.116;11.608;2022-12-05T09:38:31;4.50;99.50
11399;DHT22;5755;48.116;11.608;2022-12-05T09:41:05;4.60;99.40
11399;DHT22;5755;48.116;11.608;2022-12-05T09:43:42;4.60;99.40
11399;DHT22;5755;48.116;11.608;2022-12-05T09:46:19;4.70;99.30
11399;DHT22;5755;48.116;11.608;2022-12-05T09:48:47;4.60;99.10
11399;DHT22;5755;48.116;11.608;2022-12-05T09:51:24;4.70;99.30
11399;DHT22;5755;48.116;11.608;2022-12-05T09:53:51;4.80;99.40
11399;DHT22;5755;48.116;11.608;2022-12-05T09:56:22;4.80;99.30
11399;DHT22;5755;48.116;11.608;2022-12-05T09:58:53;4.80;99.30
11399;DHT22;5755;48.116;11.608;2022-12-05T10:01:33;5.00;98.90
11399;DHT22;5755;48.116;11.608;2022-12-05T10:04:38;5.00;98.60
11399;DHT22;5755;48.116;11.608;2022-12-05T10:07:15;5.00;98.40
11399;DHT22;5755;48.116;11.608;2022-12-05T10:09:55;5.00;98.50
11399;DHT22;5755;48.116;11.608;2022-12-05T10:12:42;5.00;98.80
11399;DHT22;5755;48.116;11.608;2022-12-05T10:15:32;4.80;98.90
11399;DHT22;5755;48.116;11.608;2022-12-05T10:18:03;4.90;99.10
11399;DHT22;5755;48.116;11.608;2022-12-05T10:20:42;4.90;99.30
11399;DHT22;5755;48.116;11.608;2022-12-05T10:23:15;5.00;99.00
11399;DHT22;5755;48.116;11.608;2022-12-05T10:26:07;5.20;98.60
11399;DHT22;5755;48.116;11.608;2022-12-05T10:28:40;5.10;98.10
11399;DHT22;5755;48.116;11.608;2022-12-05T10:31:13;5.20;98.60
11399;DHT22;5755;48.116;11.608;2022-12-05T10:33:50;5.20;98.50
11399;DHT22;5755;48.116;11.608;2022-12-05T10:36:19;5.40;98.50
11399;DHT22;5755;48.116;11.608;2022-12-05T10:38:46;5.50;98.10
11399;DHT22;5755;48.116;11.608;2022-12-05T10:41:14;5.40;98.00
11399;DHT22;5755;48.116;11.608;2022-12-05T10:43:43;5.50;98.40
11399;DHT22;5755;48.116;11.608;2022-12-05T10:46:13;5.50;98.40
11399;DHT22;5755;48.116;11.608;2022-12-05T10:48:44;5.50;98.20
11399;DHT22;5755;48.116;11.608;2022-12-05T10:51:16;5.60;98.30
11399;DHT22;5755;48.116;11.608;2022-12-05T10:53:45;5.60;97.80
11399;DHT22;5755;48.116;11.608;2022-12-05T10:56:40;5.60;97.70
11399;DHT22;5755;48.116;11.608;2022-12-05T10:59:08;5.60;97.50
11399;DHT22;5755;48.116;11.608;2022-12-05T11:01:52;5.80;97.40
11399;DHT22;5755;48.116;11.608;2022-12-05T11:07:37;5.80;97.80
11399;DHT22;5755;48.116;11.608;2022-12-05T11:10:22;5.70;97.30
11399;DHT22;5755;48.116;11.608;2022-12-05T11:12:50;5.90;97.90
11399;DHT22;5755;48.116;11.608;2022-12-05T11:15:22;6.00;97.60
11399;DHT22;5755;48.116;11.608;2022-12-05T11:31:46;6.30;96.50
11399;DHT22;5755;48.116;11.608;2022-12-05T11:34:38;6.10;96.10
11399;DHT22;5755;48.116;11.608;2022-12-05T11:37:44;6.10;96.60
11399;DHT22;5755;48.116;11.608;2022-12-05T11:40:15;6.10;96.20
11399;DHT22;5755;48.116;11.608;2022-12-05T11:43:12;6.20;96.60
11399;DHT22;5755;48.116;11.608;2022-12-05T11:45:53;6.40;96.00
11399;DHT22;5755;48.116;11.608;2022-12-05T11:49:10;6.50;95.40
11399;DHT22;5755;48.116;11.608;2022-12-05T11:51:44;6.50;94.80
11399;DHT22;5755;48.116;11.608;2022-12-05T11:57:27;6.30;95.40
11399;DHT22;5755;48.116;11.608;2022-12-05T12:00:05;6.30;95.10
11399;DHT22;5755;48.116;11.608;2022-12-05T12:03:15;6.20;95.30
11399;DHT22;5755;48.116;11.608;2022-12-05T12:06:16;6.30;95.60
11399;DHT22;5755;48.116;11.608;2022-12-05T12:09:01;6.30;95.90
11399;DHT22;5755;48.116;11.608;2022-12-05T12:11:55;6.40;95.40
11399;DHT22;5755;48.116;11.608;2022-12-05T12:14:37;6.40;95.40
11399;DHT22;5755;48.116;11.608;2022-12-05T12:17:40;6.30;95.40
11399;DHT22;5755;48.116;11.608;2022-12-05T12:20:26;6.30;95.40
11399;DHT22;5755;48.116;11.608;2022-12-05T12:23:15;6.30;95.30
11399;DHT22;5755;48.116;11.608;2022-12-05T12:26:07;6.20;95.20
11399;DHT22;5755;48.116;11.608;2022-12-05T12:28:42;6.10;95.60
11399;DHT22;5755;48.116;11.608;2022-12-05T12:31:29;6.10;96.10
11399;DHT22;5755;48.116;11.608;2022-12-05T12:34:08;6.00;96.20
11399;DHT22;5755;48.116;11.608;2022-12-05T12:36:44;6.10;95.80
11399;DHT22;5755;48.116;11.608;2022-12-05T12:39:21;6.00;96.00
11399;DHT22;5755;48.116;11.608;2022-12-05T12:42:09;5.90;96.10
11399;DHT22;5755;48.116;11.608;2022-12-05T12:45:16;5.90;96.00
11399;DHT22;5755;48.116;11.608;2022-12-05T12:48:02;5.90;96.20
11399;DHT22;5755;48.116;11.608;2022-12-05T12:50:32;5.90;96.20
11399;DHT22;5755;48.116;11.608;2022-12-05T12:53:21;5.90;95.60
11399;DHT22;5755;48.116;11.608;2022-12-05T12:56:15;5.90;95.80
11399;DHT22;5755;48.116;11.608;2022-12-05T12:58:50;5.90;96.00
11399;DHT22;5755;48.116;11.608;2022-12-05T13:01:27;6.00;95.80
11399;DHT22;5755;48.116;11.608;2022-12-05T13:03:57;6.00;95.70
11399;DHT22;5755;48.116;11.608;2022-12-05T13:07:14;6.00;95.40
11399;DHT22;5755;48.116;11.608;2022-12-05T13:09:47;6.00;96.10
11399;DHT22;5755;48.116;11.608;2022-12-05T13:12:21;6.10;95.30
11399;DHT22;5755;48.116;11.608;2022-12-05T13:15:06;6.20;95.30
11399;DHT22;5755;48.116;11.608;2022-12-05T13:17:38;6.00;95.00
11399;DHT22;5755;48.116;11.608;2022-12-05T13:20:13;6.00;95.30
11399;DHT22;5755;48.116;11.608;2022-12-05T13:22:41;6.00;94.70
11399;DHT22;5755;48.116;11.608;2022-12-05T13:25:13;5.90;95.20
11399;DHT22;5755;48.116;11.608;2022-12-05T13:27:53;5.90;95.30
11399;DHT22;5755;48.116;11.608;2022-12-05T13:30:21;5.90;95.30
11399;DHT22;5755;48.116;11.608;2022-12-05T13:32:55;5.90;95.30
11399;DHT22;5755;48.116;11.608;2022-12-05T13:35:29;5.90;95.30
11399;DHT22;5755;48.116;11.608;2022-12-05T13:38:21;5.80;95.20
11399;DHT22;5755;48.116;11.608;2022-12-05T13:41:06;5.90;95.30
11399;DHT22;5755;48.116;11.608;2022-12-05T13:43:53;6.00;94.90
11399;DHT22;5755;48.116;11.608;2022-12-05T13:46:27;5.90;95.30
11399;DHT22;5755;48.116;11.608;2022-12-05T13:49:15;5.80;95.20
11399;DHT22;5755;48.116;11.608;2022-12-05T13:51:45;5.70;95.20
11399;DHT22;5755;48.116;11.608;2022-12-05T13:54:15;5.60;95.50
11399;DHT22;5755;48.116;11.608;2022-12-05T13:56:52;5.60;95.50
11399;DHT22;5755;48.116;11.608;2022-12-05T14:00:04;5.60;95.40
11399;DHT22;5755;48.116;11.608;2022-12-05T14:02:49;5.50;95.20
11399;DHT22;5755;48.116;11.608;2022-12-05T14:05:38;5.50;95.20
11399;DHT22;5755;48.116;11.608;2022-12-05T14:11:12;5.30;95.50
11399;DHT22;5755;48.116;11.608;2022-12-05T14:13:44;5.30;95.90
11399;DHT22;5755;48.116;11.608;2022-12-05T14:25:39;5.30;96.10
11399;DHT22;5755;48.116;11.608;2022-12-05T14:28:38;5.30;96.20
11399;DHT22;5755;48.116;11.608;2022-12-05T14:31:19;5.30;96.60
11399;DHT22;5755;48.116;11.608;2022-12-05T14:34:03;5.50;95.90
11399;DHT22;5755;48.116;11.608;2022-12-05T14:36:31;5.40;95.70
11399;DHT22;5755;48.116;11.608;2022-12-05T14:38:58;5.30;96.00
11399;DHT22;5755;48.116;11.608;2022-12-05T14:41:33;5.40;96.00
11399;DHT22;5755;48.116;11.608;2022-12-05T14:44:02;5.40;96.60
11399;DHT22;5755;48.116;11.608;2022-12-05T14:46:30;5.30;96.70
11399;DHT22;5755;48.116;11.608;2022-12-05T14:52:20;5.10;97.20
11399;DHT22;5755;48.116;11.608;2022-12-05T14:54:49;5.10;97.70
11399;DHT22;5755;48.116;11.608;2022-12-05T14:57:17;5.20;97.40
11399;DHT22;5755;48.116;11.608;2022-12-05T14:59:49;5.20;97.10
11399;DHT22;5755;48.116;11.608;2022-12-05T15:02:22;5.30;96.90
11399;DHT22;5755;48.116;11.608;2022-12-05T15:05:01;5.20;97.20
11399;DHT22;5755;48.116;11.608;2022-12-05T15:07:33;5.20;97.60
11399;DHT22;5755;48.116;11.608;2022-12-05T15:10:03;5.10;98.10
11399;DHT22;5755;48.116;11.608;2022-12-05T15:12:37;5.00;98.20
11399;DHT22;5755;48.116;11.608;2022-12-05T15:15:18;5.00;98.50
11399;DHT22;5755;48.116;11.608;2022-12-05T15:17:50;5.00;98.90
11399;DHT22;5755;48.116;11.608;2022-12-05T15:20:28;5.00;98.70
11399;DHT22;5755;48.116;11.608;2022-12-05T15:23:38;5.00;98.60
11399;DHT22;5755;48.116;11.608;2022-12-05T15:26:18;5.00;98.80
11399;DHT22;5755;48.116;11.608;2022-12-05T15:29:04;5.00;99.00
11399;DHT22;5755;48.116;11.608;2022-12-05T15:31:35;5.00;98.90
11399;DHT22;5755;48.116;11.608;2022-12-05T15:34:06;4.90;99.00
11399;DHT22;5755;48.116;11.608;2022-12-05T15:36:46;4.90;99.10
11399;DHT22;5755;48.116;11.608;2022-12-05T15:39:22;4.80;99.40
11399;DHT22;5755;48.116;11.608;2022-12-05T15:41:51;4.70;99.70
11399;DHT22;5755;48.116;11.608;2022-12-05T15:44:19;4.80;99.50
11399;DHT22;5755;48.116;11.608;2022-12-05T15:46:51;4.80;99.40
11399;DHT22;5755;48.116;11.608;2022-12-05T15:49:23;4.80;99.60
11399;DHT22;5755;48.116;11.608;2022-12-05T15:52:02;4.80;99.50
11399;DHT22;5755;48.116;11.608;2022-12-05T15:54:34;4.80;99.50
11399;DHT22;5755;48.116;11.608;2022-12-05T15:57:14;4.90;99.40
11399;DHT22;5755;48.116;11.608;2022-12-05T15:59:46;4.80;99.60
11399;DHT22;5755;48.116;11.608;2022-12-05T16:02:17;4.90;99.40
11399;DHT22;5755;48.116;11.608;2022-12-05T16:04:49;4.80;99.50
11399;DHT22;5755;48.116;11.608;2022-12-05T16:07:19;4.80;99.90
11399;DHT22;5755;48.116;11.608;2022-12-05T16:09:49;5.00;99.30
11399;DHT22;5755;48.116;11.608;2022-12-05T16:12:24;4.90;99.30
11399;DHT22;5755;48.116;11.608;2022-12-05T16:14:54;4.90;99.60
11399;DHT22;5755;48.116;11.608;2022-12-05T16:17:22;4.90;99.00
11399;DHT22;5755;48.116;11.608;2022-12-05T16:19:50;4.90;98.80
11399;DHT22;5755;48.116;11.608;2022-12-05T16:22:22;4.80;99.10
11399;DHT22;5755;48.116;11.608;2022-12-05T16:24:58;4.80;99.10
11399;DHT22;5755;48.116;11.608;2022-12-05T16:27:41;4.80;99.30
11399;DHT22;5755;48.116;11.608;2022-12-05T16:30:18;4.80;99.40
11399;DHT22;5755;48.116;11.608;2022-12-05T16:33:03;4.80;99.40
11399;DHT22;5755;48.116;11.608;2022-12-05T16:35:36;4.80;99.60
11399;DHT22;5755;48.116;11.608;2022-12-05T16:38:17;4.90;99.60
11399;DHT22;5755;48.116;11.608;2022-12-05T16:40:54;4.90;99.80
11399;DHT22;5755;48.116;11.608;2022-12-05T16:44:02;4.90;99.70
11399;DHT22;5755;48.116;11.608;2022-12-05T16:46:56;4.80;99.90
11399;DHT22;5755;48.116;11.608;2022-12-05T16:49:33;4.80;99.90
11399;DHT22;5755;48.116;11.608;2022-12-05T17:02:39;4.70;99.90
11399;DHT22;5755;48.116;11.608;2022-12-05T17:21:54;4.50;99.90
11399;DHT22;5755;48.116;11.608;2022-12-05T17:24:35;4.50;99.90
11399;DHT22;5755;48.116;11.608;2022-12-05T17:27:04;4.50;99.90
11399;DHT22;5755;48.116;11.608;2022-12-05T17:33:16;4.20;99.90
11399;DHT22;5755;48.116;11.608;2022-12-05T17:36:27;4.10;99.90